createdAt,value
2022-12-14T00:02:14.435Z,-5.90
2022-12-14T00:04:42.522Z,-5.90
2022-12-14T00:07:10.562Z,-5.90
2022-12-14T00:09:38.546Z,-5.95
2022-12-14T00:12:06.850Z,-5.98
2022-12-14T00:14:36.150Z,-5.88
2022-12-14T00:17:04.117Z,-5.93
2022-12-14T00:19:32.440Z,-5.88
2022-12-14T00:22:00.591Z,-6.02
2022-12-14T00:24:28.798Z,-5.97
2022-12-14T00:26:56.854Z,-6.08
2022-12-14T00:29:25.297Z,-6.10
2022-12-14T00:31:54.571Z,-6.12
2022-12-14T00:34:22.588Z,-6.10
2022-12-14T00:36:50.547Z,-6.16
2022-12-14T00:39:18.739Z,-6.22
2022-12-14T00:41:48.332Z,-6.15
2022-12-14T00:44:16.471Z,-6.24
2022-12-14T00:46:44.497Z,-6.00
2022-12-14T00:49:14.128Z,-6.04
2022-12-14T00:51:42.199Z,-6.17
2022-12-14T00:54:10.197Z,-6.17
2022-12-14T00:56:38.155Z,-6.25
2022-12-14T00:59:06.075Z,-6.19
2022-12-14T01:01:34.110Z,-6.27
2022-12-14T01:04:16.332Z,-6.32
2022-12-14T01:06:47.345Z,-6.22
2022-12-14T01:09:15.926Z,-5.93
2022-12-14T01:11:44.365Z,-6.22
2022-12-14T01:14:14.022Z,-6.19
2022-12-14T01:16:42.302Z,-6.27
2022-12-14T01:19:12.228Z,-6.32
2022-12-14T01:21:40.237Z,-6.24
2022-12-14T01:24:10.685Z,-6.18
2022-12-14T01:26:40.449Z,-6.31
2022-12-14T01:29:08.945Z,-6.35
2022-12-14T01:31:38.890Z,-6.25
2022-12-14T01:34:07.984Z,-6.62
2022-12-14T01:36:38.879Z,-6.35
2022-12-14T01:39:13.616Z,-6.35
2022-12-14T01:41:45.286Z,-6.20
2022-12-14T01:44:52.901Z,-6.37
2022-12-14T01:47:26.306Z,-6.46
2022-12-14T01:49:58.870Z,-6.42
2022-12-14T01:52:31.832Z,-6.51
2022-12-14T01:55:06.035Z,-6.41
2022-12-14T01:57:38.239Z,-6.56
2022-12-14T02:00:09.852Z,-6.60
2022-12-14T02:02:43.343Z,-6.62
2022-12-14T02:05:14.324Z,-6.59
2022-12-14T02:07:44.109Z,-6.61
2022-12-14T02:10:18.927Z,-6.70
2022-12-14T02:12:50.584Z,-6.66
2022-12-14T02:15:19.105Z,-6.74
2022-12-14T02:17:48.236Z,-6.73
2022-12-14T02:20:17.874Z,-6.76
2022-12-14T02:23:21.576Z,-6.74
2022-12-14T02:26:31.293Z,-6.85
2022-12-14T02:29:32.685Z,-6.87
2022-12-14T02:32:16.392Z,-6.87
2022-12-14T02:34:56.856Z,-6.86
2022-12-14T02:37:30.972Z,-6.91
2022-12-14T02:40:10.209Z,-6.90
2022-12-14T02:42:46.704Z,-6.88
2022-12-14T02:45:25.626Z,-6.95
2022-12-14T02:47:59.858Z,-7.00
2022-12-14T02:50:35.037Z,-7.01
2022-12-14T02:53:10.846Z,-6.99
2022-12-14T02:55:44.974Z,-6.98
2022-12-14T02:58:18.706Z,-7.01
2022-12-14T03:00:47.834Z,-7.07
2022-12-14T03:03:17.383Z,-7.07
2022-12-14T03:05:56.178Z,-7.05
2022-12-14T03:08:27.504Z,-7.08
2022-12-14T03:10:59.435Z,-7.10
2022-12-14T03:13:32.898Z,-7.06
2022-12-14T03:16:05.892Z,-7.14
2022-12-14T03:18:38.897Z,-7.18
2022-12-14T03:21:10.767Z,-7.08
2022-12-14T03:23:42.555Z,-7.13
2022-12-14T03:26:17.187Z,-7.18
2022-12-14T03:28:50.044Z,-7.25
2022-12-14T03:31:22.804Z,-7.25
2022-12-14T03:33:57.225Z,-7.26
2022-12-14T03:36:29.918Z,-7.25
2022-12-14T03:39:02.046Z,-7.07
2022-12-14T03:41:35.492Z,-7.26
2022-12-14T03:44:14.931Z,-7.20
2022-12-14T03:46:53.925Z,-7.28
2022-12-14T03:49:37.886Z,-7.34
2022-12-14T03:52:09.946Z,-7.40
2022-12-14T03:54:48.179Z,-7.40
2022-12-14T03:57:25.607Z,-7.39
2022-12-14T04:00:00.840Z,-7.45
2022-12-14T04:02:40.582Z,-7.41
2022-12-14T04:05:24.846Z,-7.39
2022-12-14T04:08:01.116Z,-7.40
2022-12-14T04:10:50.272Z,-7.40
2022-12-14T04:13:39.957Z,-7.48
2022-12-14T04:16:31.718Z,-7.27
2022-12-14T04:19:02.596Z,-7.42
2022-12-14T04:21:40.028Z,-7.50
2022-12-14T04:24:31.244Z,-7.24
2022-12-14T04:27:06.371Z,-7.47
2022-12-14T04:29:54.959Z,-7.51
2022-12-14T04:32:27.960Z,-7.47
2022-12-14T04:35:00.478Z,-7.52
2022-12-14T04:37:31.624Z,-7.55
2022-12-14T04:40:06.446Z,-7.49
2022-12-14T04:42:40.663Z,-7.65
2022-12-14T04:45:15.320Z,-7.40
2022-12-14T04:47:47.110Z,-7.44
2022-12-14T04:50:21.632Z,-7.47
2022-12-14T04:52:53.690Z,-7.48
2022-12-14T04:55:32.078Z,-7.47
2022-12-14T04:58:05.918Z,-7.47
2022-12-14T05:00:38.865Z,-7.45
2022-12-14T05:03:19.844Z,-7.48
2022-12-14T05:05:58.725Z,-7.40
2022-12-14T05:08:46.893Z,-7.49
2022-12-14T05:11:52.072Z,-7.51
2022-12-14T05:14:18.467Z,-7.54
2022-12-14T05:16:49.607Z,-7.60
2022-12-14T05:19:17.751Z,-7.59
2022-12-14T05:21:48.439Z,-7.64
2022-12-14T05:24:18.493Z,-7.45
2022-12-14T05:26:46.604Z,-7.62
2022-12-14T05:29:15.018Z,-7.61
2022-12-14T05:31:43.032Z,-7.66
2022-12-14T05:34:17.585Z,-7.64
2022-12-14T05:36:45.525Z,-7.61
2022-12-14T05:39:13.847Z,-7.69
2022-12-14T05:41:43.605Z,-7.71
2022-12-14T05:44:11.635Z,-7.76
2022-12-14T05:46:40.029Z,-7.82
2022-12-14T05:49:08.086Z,-7.79
2022-12-14T05:51:35.993Z,-7.87
2022-12-14T05:54:03.923Z,-7.83
2022-12-14T05:56:31.970Z,-7.86
2022-12-14T05:59:02.458Z,-7.83
2022-12-14T06:01:30.499Z,-7.74
2022-12-14T06:03:58.529Z,-7.71
2022-12-14T06:06:26.517Z,-7.71
2022-12-14T06:08:54.539Z,-7.68
2022-12-14T06:11:23.935Z,-7.59
2022-12-14T06:13:52.397Z,-7.65
2022-12-14T06:16:24.223Z,-7.55
2022-12-14T06:18:54.284Z,-7.69
2022-12-14T06:21:25.521Z,-7.70
2022-12-14T06:23:53.395Z,-7.77
2022-12-14T06:26:21.576Z,-7.77
2022-12-14T06:28:50.049Z,-7.83
2022-12-14T06:31:20.420Z,-7.77
2022-12-14T06:33:49.790Z,-7.84
2022-12-14T06:36:19.759Z,-7.75
2022-12-14T06:38:48.084Z,-7.77
2022-12-14T06:41:16.196Z,-7.83
2022-12-14T06:43:44.207Z,-7.85
2022-12-14T06:46:16.099Z,-7.81
2022-12-14T06:48:44.399Z,-7.76
2022-12-14T06:51:13.646Z,-7.81
2022-12-14T06:53:41.577Z,-7.81
2022-12-14T06:56:11.136Z,-7.84
2022-12-14T06:58:40.055Z,-6.74
2022-12-14T07:01:11.131Z,-7.55
2022-12-14T07:03:39.660Z,-7.84
2022-12-14T07:06:08.905Z,-7.71
2022-12-14T07:08:39.541Z,-7.88
2022-12-14T07:11:09.768Z,-7.80
2022-12-14T07:13:39.624Z,-7.91
2022-12-14T07:16:09.742Z,-7.97
2022-12-14T07:18:37.884Z,-8.02
2022-12-14T07:21:09.499Z,-7.94
2022-12-14T07:23:40.431Z,-8.01
2022-12-14T07:26:10.420Z,-7.94
2022-12-14T07:28:39.575Z,-7.93
2022-12-14T07:31:09.350Z,-7.97
2022-12-14T07:33:37.329Z,-7.92
2022-12-14T07:36:06.861Z,-7.82
2022-12-14T07:38:35.222Z,-7.93
2022-12-14T07:41:06.422Z,-7.69
2022-12-14T07:43:35.154Z,-7.79
2022-12-14T07:46:04.806Z,-7.77
2022-12-14T07:48:33.752Z,-7.58
2022-12-14T07:51:07.411Z,-7.64
2022-12-14T07:53:36.367Z,-7.66
2022-12-14T07:56:09.731Z,-7.62
2022-12-14T07:58:40.449Z,-7.55
2022-12-14T08:01:11.274Z,-7.64
2022-12-14T08:03:39.949Z,-7.55
2022-12-14T08:06:09.450Z,-7.35
2022-12-14T08:08:37.804Z,-7.56
2022-12-14T08:11:08.473Z,-7.43
2022-12-14T08:13:38.750Z,-7.43
2022-12-14T08:16:08.283Z,-7.41
2022-12-14T08:18:36.766Z,-7.45
2022-12-14T08:21:06.300Z,-7.41
2022-12-14T08:23:34.959Z,-7.34
2022-12-14T08:26:04.625Z,-7.34
2022-12-14T08:28:39.584Z,-7.15
2022-12-14T08:31:11.832Z,-7.22
2022-12-14T08:33:41.172Z,-7.03
2022-12-14T08:36:17.368Z,-6.88
2022-12-14T08:38:45.656Z,-6.84
2022-12-14T08:41:17.450Z,-6.78
2022-12-14T08:43:57.481Z,-6.89
2022-12-14T08:46:30.084Z,-6.94
2022-12-14T08:48:58.510Z,-6.85
2022-12-14T08:51:28.614Z,-6.89
2022-12-14T08:53:57.372Z,-6.91
2022-12-14T08:56:27.066Z,-6.82
2022-12-14T08:58:56.853Z,-6.83
2022-12-14T09:01:32.336Z,-6.82
2022-12-14T09:04:05.007Z,-6.58
2022-12-14T09:06:35.919Z,-6.70
2022-12-14T09:09:15.696Z,-6.55
2022-12-14T09:11:44.255Z,-6.50
2022-12-14T09:14:13.914Z,-6.45
2022-12-14T09:16:44.654Z,-6.32
2022-12-14T09:19:48.618Z,-6.31
2022-12-14T09:22:41.066Z,-6.31
2022-12-14T09:25:11.493Z,-6.22
2022-12-14T09:27:39.930Z,-6.21
2022-12-14T09:30:20.469Z,-6.21
2022-12-14T09:32:52.913Z,-6.10
2022-12-14T09:35:20.962Z,-6.05
2022-12-14T09:37:49.062Z,-6.04
2022-12-14T09:40:17.400Z,-5.94
2022-12-14T09:42:57.759Z,-5.84
2022-12-14T09:45:35.002Z,-5.77
2022-12-14T09:48:10.400Z,-5.64
2022-12-14T09:50:40.326Z,-5.67
2022-12-14T09:53:14.390Z,-5.52
2022-12-14T09:55:45.065Z,-5.53
2022-12-14T09:58:18.069Z,-5.45
2022-12-14T10:00:58.083Z,-5.47
2022-12-14T10:03:44.875Z,-5.38
2022-12-14T10:06:36.369Z,-5.30
2022-12-14T10:09:16.311Z,-5.13
2022-12-14T10:11:59.252Z,-5.30
2022-12-14T10:14:48.858Z,-5.05
2022-12-14T10:17:27.430Z,-5.04
2022-12-14T10:20:04.978Z,-4.85
2022-12-14T10:22:48.154Z,-4.86
2022-12-14T10:25:31.078Z,-4.63
2022-12-14T10:28:11.548Z,-4.60
2022-12-14T10:30:44.011Z,-4.49
2022-12-14T10:33:22.366Z,-4.41
2022-12-14T10:35:52.643Z,-4.46
2022-12-14T10:38:29.541Z,-4.50
2022-12-14T10:41:05.349Z,-4.64
2022-12-14T10:43:44.929Z,-4.40
2022-12-14T10:46:23.953Z,-4.45
2022-12-14T10:48:58.101Z,-4.40
2022-12-14T10:51:31.762Z,-4.29
2022-12-14T10:54:08.352Z,-4.12
2022-12-14T10:56:50.067Z,-4.14
2022-12-14T10:59:40.332Z,-4.12
2022-12-14T11:02:17.460Z,-4.04
2022-12-14T11:04:51.514Z,-3.93
2022-12-14T11:07:21.724Z,-4.06
2022-12-14T11:09:54.206Z,-4.10
2022-12-14T11:12:25.736Z,-4.29
2022-12-14T11:15:01.942Z,-4.18
2022-12-14T11:17:39.521Z,-3.82
2022-12-14T11:20:34.417Z,-3.82
2022-12-14T11:23:10.360Z,-3.44
2022-12-14T11:25:41.517Z,-3.62
2022-12-14T11:28:22.593Z,-2.77
2022-12-14T11:30:59.062Z,-2.37
2022-12-14T11:33:32.870Z,-2.17
2022-12-14T11:36:02.816Z,-2.05
2022-12-14T11:38:31.810Z,-2.04
2022-12-14T11:41:08.886Z,-2.35
2022-12-14T11:43:42.548Z,-2.40
2022-12-14T11:46:12.998Z,-2.47
2022-12-14T11:48:49.214Z,-2.86
2022-12-14T11:51:18.626Z,-2.90
2022-12-14T11:54:04.263Z,-2.90
2022-12-14T11:56:33.319Z,-2.81
2022-12-14T11:59:01.278Z,-2.81
2022-12-14T12:01:29.634Z,-3.02
2022-12-14T12:04:00.626Z,-2.99
2022-12-14T12:06:31.308Z,-3.03
2022-12-14T12:09:02.799Z,-2.91
2022-12-14T12:11:33.036Z,-2.83
2022-12-14T12:14:04.304Z,-2.68
2022-12-14T12:16:35.754Z,-2.63
2022-12-14T12:19:12.405Z,-2.45
2022-12-14T12:21:44.761Z,-2.57
2022-12-14T12:24:19.439Z,-2.12
2022-12-14T12:26:50.872Z,-2.32
2022-12-14T12:29:25.924Z,-1.82
2022-12-14T12:31:58.735Z,-1.08
2022-12-14T12:34:34.479Z,-0.91
2022-12-14T12:37:30.754Z,-1.68
2022-12-14T12:40:04.457Z,-1.44
2022-12-14T12:42:41.614Z,-1.47
2022-12-14T12:45:22.757Z,-1.86
2022-12-14T12:47:55.798Z,-2.25
2022-12-14T12:50:27.156Z,-2.58
2022-12-14T12:53:03.471Z,-2.78
2022-12-14T12:55:36.935Z,-2.34
2022-12-14T12:58:09.916Z,-2.50
2022-12-14T13:00:44.584Z,-2.19
2022-12-14T13:03:22.185Z,0.26
2022-12-14T13:05:51.860Z,0.66
2022-12-14T13:08:27.070Z,1.83
2022-12-14T13:13:52.320Z,0.19
2022-12-14T13:16:27.385Z,-0.47
2022-12-14T13:19:25.394Z,-1.70
2022-12-14T13:21:55.004Z,-2.02
2022-12-14T13:24:26.685Z,-2.35
2022-12-14T13:27:33.399Z,-2.87
2022-12-14T13:30:18.284Z,-2.46
2022-12-14T13:33:04.443Z,-2.96
2022-12-14T13:35:49.466Z,-3.19
2022-12-14T13:38:38.163Z,-3.26
2022-12-14T13:41:17.009Z,-3.43
2022-12-14T13:44:15.303Z,-3.34
2022-12-14T13:46:45.835Z,-3.46
2022-12-14T13:49:23.180Z,-3.17
2022-12-14T13:51:55.623Z,-3.23
2022-12-14T13:54:29.194Z,-3.30
2022-12-14T13:57:08.073Z,-3.58
2022-12-14T13:59:41.164Z,-3.69
2022-12-14T14:02:42.253Z,-3.67
2022-12-14T14:05:59.253Z,-3.37
2022-12-14T14:12:58.663Z,-3.96
2022-12-14T14:16:27.499Z,-3.90
2022-12-14T14:18:48.519Z,-4.26
2022-12-14T14:21:32.954Z,-4.40
2022-12-14T14:24:23.148Z,-4.53
2022-12-14T14:27:10.693Z,-4.71
2022-12-14T14:30:01.164Z,-4.48
2022-12-14T14:32:40.035Z,-4.32
2022-12-14T14:35:28.263Z,-4.29
2022-12-14T14:38:03.333Z,-4.04
2022-12-14T14:41:14.712Z,-4.41
2022-12-14T14:43:38.743Z,-4.20
2022-12-14T14:46:19.161Z,-4.77
2022-12-14T14:48:55.330Z,-4.93
2022-12-14T14:51:30.265Z,-4.73
2022-12-14T14:55:11.007Z,-4.67
2022-12-14T14:57:36.146Z,-4.64
2022-12-14T15:00:11.195Z,-4.73
2022-12-14T15:02:44.163Z,-4.73
2022-12-14T15:08:20.803Z,-4.90
2022-12-14T15:10:57.720Z,-4.86
2022-12-14T15:13:33.718Z,-4.79
2022-12-14T15:16:08.802Z,-4.92
2022-12-14T15:18:48.367Z,-4.93
2022-12-14T15:21:25.094Z,-4.99
2022-12-14T15:23:59.925Z,-4.96
2022-12-14T15:26:33.151Z,-5.04
2022-12-14T15:29:07.527Z,-5.05
2022-12-14T15:31:38.344Z,-5.03
2022-12-14T15:34:09.375Z,-5.00
2022-12-14T15:36:45.185Z,-5.06
2022-12-14T15:40:06.910Z,-5.11
2022-12-14T15:42:48.043Z,-5.13
2022-12-14T15:45:19.472Z,-5.17
2022-12-14T15:47:49.207Z,-5.25
2022-12-14T15:50:23.837Z,-5.19
2022-12-14T15:52:54.046Z,-5.13
2022-12-14T15:55:42.637Z,-5.17
2022-12-14T15:58:17.867Z,-5.14
2022-12-14T16:00:49.348Z,-4.82
2022-12-14T16:03:26.758Z,-5.28
2022-12-14T16:05:57.794Z,-5.43
2022-12-14T16:08:34.021Z,-5.23
2022-12-14T16:11:08.297Z,-5.23
2022-12-14T16:13:41.370Z,-5.38
2022-12-14T16:16:12.856Z,-5.38
2022-12-14T16:18:50.950Z,-5.33
2022-12-14T16:21:32.460Z,-5.54
2022-12-14T16:24:01.952Z,-5.44
2022-12-14T16:26:37.939Z,-5.56
2022-12-14T16:29:10.791Z,-5.47
2022-12-14T16:31:39.293Z,-5.58
2022-12-14T16:34:10.694Z,-5.66
2022-12-14T16:36:40.461Z,-5.62
2022-12-14T16:39:17.788Z,-5.58
2022-12-14T16:41:59.325Z,-5.42
2022-12-14T16:44:41.766Z,-5.71
2022-12-14T16:47:28.598Z,-5.88
2022-12-14T16:49:59.621Z,-5.93
2022-12-14T16:52:31.681Z,-5.96
2022-12-14T16:55:14.902Z,-5.89
2022-12-14T16:57:52.998Z,-5.92
2022-12-14T17:00:24.832Z,-5.90
2022-12-14T17:02:58.922Z,-5.88
2022-12-14T17:05:32.749Z,-5.84
2022-12-14T17:08:02.260Z,-5.93
2022-12-14T17:10:34.384Z,-5.73
2022-12-14T17:13:06.562Z,-5.88
2022-12-14T17:15:36.136Z,-6.00
2022-12-14T17:18:08.342Z,-6.00
2022-12-14T17:20:39.143Z,-6.01
2022-12-14T17:23:17.738Z,-6.00
2022-12-14T17:25:47.840Z,-6.00
2022-12-14T17:28:22.900Z,-5.99
2022-12-14T17:30:52.294Z,-5.83
2022-12-14T17:33:20.315Z,-5.91
2022-12-14T17:35:53.413Z,-6.23
2022-12-14T17:38:24.691Z,-6.16
2022-12-14T17:40:56.495Z,-6.18
2022-12-14T17:43:27.656Z,-6.16
2022-12-14T17:46:00.824Z,-6.13
2022-12-14T17:48:29.852Z,-6.12
2022-12-14T17:50:57.885Z,-6.16
2022-12-14T17:53:31.284Z,-6.21
2022-12-14T17:55:59.595Z,-6.21
2022-12-14T17:58:27.895Z,-6.09
2022-12-14T18:01:02.812Z,-6.19
2022-12-14T18:03:33.743Z,-6.27
2022-12-14T18:06:05.634Z,-6.18
2022-12-14T18:08:35.450Z,-6.25
2022-12-14T18:11:11.859Z,-6.42
2022-12-14T18:13:44.954Z,-6.30
2022-12-14T18:16:18.198Z,-6.47
2022-12-14T18:18:46.550Z,-6.33
2022-12-14T18:21:21.125Z,-6.37
2022-12-14T18:23:53.732Z,-6.29
2022-12-14T18:26:22.762Z,-6.38
2022-12-14T18:28:53.140Z,-6.42
2022-12-14T18:31:25.137Z,-6.46
2022-12-14T18:33:53.417Z,-6.57
2022-12-14T18:36:22.524Z,-6.67
2022-12-14T18:38:52.449Z,-6.57
2022-12-14T18:41:24.495Z,-6.56
2022-12-14T18:43:54.535Z,-6.47
2022-12-14T18:46:23.720Z,-6.34
2022-12-14T18:48:51.809Z,-6.62
2022-12-14T18:51:23.848Z,-6.70
2022-12-14T18:53:54.437Z,-6.67
2022-12-14T18:56:23.385Z,-6.71
2022-12-14T18:58:52.756Z,-6.72
2022-12-14T19:01:23.061Z,-6.56
2022-12-14T19:03:51.657Z,-6.71
2022-12-14T19:09:15.146Z,-6.63
2022-12-14T19:11:43.558Z,-6.70
2022-12-14T19:14:11.746Z,-6.73
2022-12-14T19:16:39.812Z,-6.68
2022-12-14T19:19:08.004Z,-6.58
2022-12-14T19:21:36.101Z,-6.85
2022-12-14T19:24:04.399Z,-6.77
2022-12-14T19:26:33.958Z,-6.83
2022-12-14T19:29:02.046Z,-6.86
2022-12-14T19:31:30.328Z,-6.87
2022-12-14T19:33:58.796Z,-6.79
2022-12-14T19:36:27.092Z,-6.78
2022-12-14T19:39:01.758Z,-6.78
2022-12-14T19:41:30.784Z,-6.63
2022-12-14T19:44:02.862Z,-6.85
2022-12-14T19:46:31.164Z,-6.85
2022-12-14T19:49:00.044Z,-6.97
2022-12-14T19:51:28.227Z,-6.99
2022-12-14T19:53:56.507Z,-6.50
2022-12-14T19:56:24.806Z,-6.67
2022-12-14T19:58:54.134Z,-6.97
2022-12-14T20:01:31.627Z,-7.03
2022-12-14T20:04:01.609Z,-6.97
2022-12-14T20:06:29.894Z,-6.98
2022-12-14T20:08:59.510Z,-7.09
2022-12-14T20:11:28.307Z,-7.13
2022-12-14T20:13:58.980Z,-7.06
2022-12-14T20:16:34.527Z,-7.13
2022-12-14T20:19:03.615Z,-7.22
2022-12-14T20:21:34.042Z,-7.19
2022-12-14T20:24:02.877Z,-7.13
2022-12-14T20:26:31.300Z,-7.06
2022-12-14T20:29:02.486Z,-7.00
2022-12-14T20:31:34.070Z,-7.11
2022-12-14T20:34:03.408Z,-7.04
2022-12-14T20:36:32.345Z,-7.30
2022-12-14T20:39:18.252Z,-7.04
2022-12-14T20:41:46.407Z,-7.08
2022-12-14T20:44:16.533Z,-7.22
2022-12-14T20:46:50.905Z,-7.39
2022-12-14T20:49:21.375Z,-7.25
2022-12-14T20:51:50.020Z,-7.05
2022-12-14T20:54:22.136Z,-5.65
2022-12-14T20:56:50.239Z,-6.78
2022-12-14T20:59:18.779Z,-6.97
2022-12-14T21:01:55.180Z,-7.23
2022-12-14T21:04:24.247Z,-7.35
2022-12-14T21:06:52.676Z,-7.49
2022-12-14T21:09:20.608Z,-7.33
2022-12-14T21:12:10.653Z,-7.46
2022-12-14T21:14:42.526Z,-7.38
2022-12-14T21:17:12.310Z,-7.44
2022-12-14T21:19:41.143Z,-7.45
2022-12-14T21:22:13.507Z,-7.36
2022-12-14T21:27:31.366Z,-7.25
2022-12-14T21:30:00.252Z,-7.33
2022-12-14T21:32:29.631Z,-7.36
2022-12-14T21:34:57.836Z,-7.36
2022-12-14T21:37:26.003Z,-7.53
2022-12-14T21:39:55.767Z,-7.49
2022-12-14T21:42:23.514Z,-7.43
2022-12-14T21:44:53.161Z,-7.42
2022-12-14T21:47:23.893Z,-7.52
2022-12-14T21:49:53.709Z,-7.52
2022-12-14T21:52:24.392Z,-7.57
2022-12-14T21:54:52.611Z,-7.58
2022-12-14T21:57:40.981Z,-7.67
2022-12-14T22:00:11.017Z,-7.66
2022-12-14T22:02:42.719Z,-7.76
2022-12-14T22:05:13.017Z,-7.62
2022-12-14T22:07:41.270Z,-7.73
2022-12-14T22:10:09.293Z,-7.77
2022-12-14T22:12:37.316Z,-7.69
2022-12-14T22:15:05.728Z,-7.58
2022-12-14T22:17:33.700Z,-7.69
2022-12-14T22:20:01.827Z,-7.82
2022-12-14T22:22:31.315Z,-7.89
2022-12-14T22:24:59.617Z,-7.98
2022-12-14T22:27:30.715Z,-7.82
2022-12-14T22:29:59.047Z,-8.04
2022-12-14T22:32:27.186Z,-8.05
2022-12-14T22:34:55.201Z,-8.06
2022-12-14T22:37:23.274Z,-8.01
2022-12-14T22:39:52.561Z,-8.06
2022-12-14T22:42:20.475Z,-8.12
2022-12-14T22:44:49.361Z,-8.10
2022-12-14T22:47:17.281Z,-8.09
2022-12-14T22:49:45.369Z,-8.08
2022-12-14T22:52:13.281Z,-8.09
2022-12-14T22:54:41.747Z,-8.16
2022-12-14T22:57:15.370Z,-8.06
2022-12-14T22:59:48.037Z,-8.30
2022-12-14T23:02:16.328Z,-8.21
2022-12-14T23:04:44.583Z,-8.21
2022-12-14T23:07:12.627Z,-8.12
2022-12-14T23:09:58.222Z,-8.17
2022-12-14T23:12:45.109Z,-8.24
2022-12-14T23:15:30.603Z,-8.31
2022-12-14T23:18:20.042Z,-8.31
2022-12-14T23:21:05.572Z,-8.22
2022-12-14T23:23:50.913Z,-8.25
2022-12-14T23:26:36.273Z,-8.38
2022-12-14T23:29:22.963Z,-8.42
2022-12-14T23:32:08.673Z,-8.28
2022-12-14T23:34:54.082Z,-8.42
2022-12-14T23:37:39.713Z,-8.41
2022-12-14T23:40:25.948Z,-8.40
2022-12-14T23:43:11.358Z,-8.40
2022-12-14T23:45:58.174Z,-8.44
2022-12-14T23:48:44.053Z,-8.41
2022-12-14T23:51:29.287Z,-8.37
2022-12-14T23:54:14.998Z,-8.31
2022-12-14T23:57:01.060Z,-8.22
2022-12-14T23:59:49.692Z,-8.38
